Terminal Aerodrome Forecast
Issued by NWS

Home | Current Version | Previous Version | Text Only | Print | Product List | Glossary On
Versions: 1 2 3 4 5 6 7 8 9 10 11 12 13 14
000
FTUS43 KIND 251725
TAFLAF
TAF
KLAF 251725Z 2518/2618 18009KT P6SM SCT040 BKN250
     FM252100 20008KT P6SM VCTS SCT040CB BKN100
     FM260600 20006KT P6SM BKN080
     FM261100 22003KT 3SM BR SCT080
     FM261330 21008KT P6SM SCT040 SCT080=

USA.gov is the U.S. government's official web portal to all federal, state and local government web resources and services.